This is the latest recevied weather packets stored in our database for station/object IU8HRV-10. If no packets are shown the sender has not sent any weather packets the latest 10 day(s).
| Time | Temp. | Humidity | Pressure | Rain* | Wind** | Luminosity | Snow |
|---|---|---|---|---|---|---|---|
| 1777398975 | 31.67° C | 35% | 1016 hPa | - | - | - | - |
| 1777397173 | 33.89° C | 34% | 1016 hPa | - | - | - | - |
| 1777396271 | 34.44° C | 33% | 1016 hPa | - | - | - | - |
| 1777393568 | 36.67° C | 32% | 1016 hPa | - | - | - | - |
| 1777389964 | 36.67° C | 32% | 1017 hPa | - | - | - | - |
| 1777388161 | 36.67° C | 32% | 1016 hPa | - | - | - | - |
| 1777386359 | 36.11° C | 32% | 1017 hPa | - | - | - | - |
| 1777385458 | 35.56° C | 33% | 1017 hPa | - | - | - | - |
| 1777383656 | 33.89° C | 34% | 1017 hPa | - | - | - | - |
| 1777382755 | 33.89° C | 34% | 1017 hPa | - | - | - | - |
| 1777381854 | 33.33° C | 35% | 1017 hPa | - | - | - | - |
| 1777380953 | 32.78° C | 36% | 1017 hPa | - | - | - | - |
| 1777379150 | 30.56° C | 40% | 1017 hPa | - | - | - | - |
| 1777378249 | 29.44° C | 41% | 1018 hPa | - | - | - | - |
| 1777377350 | 27.78° C | 44% | 1018 hPa | - | - | - | - |
| 1777375546 | 26.67° C | 46% | 1018 hPa | - | - | - | - |
| 1777373744 | 26.11° C | 46% | 1018 hPa | - | - | - | - |
| 1777371942 | 25.56° C | 45% | 1018 hPa | - | - | - | - |
| 1777371041 | 25° C | 46% | 1018 hPa | - | - | - | - |
| 1777370140 | 25° C | 44% | 1018 hPa | - | - | - | - |
| 1777369239 | 24.44° C | 44% | 1018 hPa | - | - | - | - |
| 1777368338 | 24.44° C | 44% | 1018 hPa | - | - | - | - |
| 1777367436 | 23.33° C | 45% | 1018 hPa | - | - | - | - |
| 1777365634 | 23.89° C | 42% | 1018 hPa | - | - | - | - |
| 1777364733 | 23.33° C | 43% | 1018 hPa | - | - | - | - |
* Rain since midnight (hover to see other rain measurements)
** Current wind speed in m/s (hover to see current wind gust speed)